sensor_id;sensor_type;location;lat;lon;timestamp;pressure;altitude;pressure_sealevel;temperature;humidity
48810;BME280;40070;47.322;18.784;2022-07-09T00:00:51;1008.15;;;19.91;49.52
48810;BME280;40070;47.322;18.784;2022-07-09T00:02:52;1008.17;;;19.95;49.39
48810;BME280;40070;47.322;18.784;2022-07-09T00:04:53;1008.17;;;19.84;49.69
48810;BME280;40070;47.322;18.784;2022-07-09T00:06:54;1008.21;;;19.77;49.85
48810;BME280;40070;47.322;18.784;2022-07-09T00:08:55;1008.15;;;19.94;49.27
48810;BME280;40070;47.322;18.784;2022-07-09T00:10:56;1008.16;;;19.80;49.65
48810;BME280;40070;47.322;18.784;2022-07-09T00:12:57;1008.19;;;19.78;49.62
48810;BME280;40070;47.322;18.784;2022-07-09T00:14:58;1008.16;;;19.78;49.74
48810;BME280;40070;47.322;18.784;2022-07-09T00:16:59;1008.13;;;19.87;49.44
48810;BME280;40070;47.322;18.784;2022-07-09T00:19:00;1008.19;;;19.85;49.43
48810;BME280;40070;47.322;18.784;2022-07-09T00:21:01;1008.16;;;19.74;49.80
48810;BME280;40070;47.322;18.784;2022-07-09T00:23:02;1008.18;;;19.95;49.23
48810;BME280;40070;47.322;18.784;2022-07-09T00:25:03;1008.19;;;19.78;49.57
48810;BME280;40070;47.322;18.784;2022-07-09T00:27:04;1008.15;;;19.64;49.98
48810;BME280;40070;47.322;18.784;2022-07-09T00:29:05;1008.17;;;19.83;49.51
48810;BME280;40070;47.322;18.784;2022-07-09T00:31:06;1008.17;;;20.03;49.09
48810;BME280;40070;47.322;18.784;2022-07-09T00:33:07;1008.13;;;19.85;49.58
48810;BME280;40070;47.322;18.784;2022-07-09T00:35:08;1008.18;;;19.63;49.89
48810;BME280;40070;47.322;18.784;2022-07-09T00:37:09;1008.15;;;19.34;50.72
48810;BME280;40070;47.322;18.784;2022-07-09T00:39:10;1008.18;;;19.52;50.43
48810;BME280;40070;47.322;18.784;2022-07-09T00:41:10;1008.17;;;19.57;50.18
48810;BME280;40070;47.322;18.784;2022-07-09T00:43:18;1008.17;;;19.46;50.42
48810;BME280;40070;47.322;18.784;2022-07-09T00:45:19;1008.13;;;19.25;50.90
48810;BME280;40070;47.322;18.784;2022-07-09T00:47:20;1008.14;;;19.39;50.61
48810;BME280;40070;47.322;18.784;2022-07-09T00:49:21;1008.14;;;19.39;50.56
48810;BME280;40070;47.322;18.784;2022-07-09T00:51:23;1008.12;;;19.31;50.85
48810;BME280;40070;47.322;18.784;2022-07-09T00:53:24;1008.08;;;19.30;50.73
48810;BME280;40070;47.322;18.784;2022-07-09T00:55:25;1008.14;;;19.31;50.71
48810;BME280;40070;47.322;18.784;2022-07-09T00:57:27;1008.15;;;19.29;50.70
48810;BME280;40070;47.322;18.784;2022-07-09T00:59:28;1008.17;;;19.38;50.56
48810;BME280;40070;47.322;18.784;2022-07-09T01:01:29;1008.12;;;19.37;50.55
48810;BME280;40070;47.322;18.784;2022-07-09T01:03:30;1008.17;;;19.43;50.41
48810;BME280;40070;47.322;18.784;2022-07-09T01:05:31;1008.15;;;19.26;50.69
48810;BME280;40070;47.322;18.784;2022-07-09T01:07:32;1008.13;;;19.18;50.92
48810;BME280;40070;47.322;18.784;2022-07-09T01:09:33;1008.10;;;19.01;51.39
48810;BME280;40070;47.322;18.784;2022-07-09T01:11:34;1008.10;;;19.10;51.25
48810;BME280;40070;47.322;18.784;2022-07-09T01:13:35;1008.06;;;18.83;51.90
48810;BME280;40070;47.322;18.784;2022-07-09T01:15:37;1008.04;;;19.05;51.17
48810;BME280;40070;47.322;18.784;2022-07-09T01:17:38;1008.02;;;19.10;51.14
48810;BME280;40070;47.322;18.784;2022-07-09T01:19:39;1008.03;;;18.97;51.40
48810;BME280;40070;47.322;18.784;2022-07-09T01:21:40;1008.01;;;18.80;51.97
48810;BME280;40070;47.322;18.784;2022-07-09T01:23:41;1008.01;;;18.87;51.78
48810;BME280;40070;47.322;18.784;2022-07-09T01:25:42;1007.98;;;18.88;51.79
48810;BME280;40070;47.322;18.784;2022-07-09T01:27:44;1007.96;;;18.95;51.50
48810;BME280;40070;47.322;18.784;2022-07-09T01:29:45;1007.94;;;18.94;51.47
48810;BME280;40070;47.322;18.784;2022-07-09T01:31:46;1007.93;;;18.73;52.03
48810;BME280;40070;47.322;18.784;2022-07-09T01:33:47;1007.87;;;18.82;51.82
48810;BME280;40070;47.322;18.784;2022-07-09T01:35:48;1007.88;;;18.70;52.23
48810;BME280;40070;47.322;18.784;2022-07-09T01:37:48;1007.88;;;18.62;52.30
48810;BME280;40070;47.322;18.784;2022-07-09T01:39:49;1007.82;;;18.51;52.67
48810;BME280;40070;47.322;18.784;2022-07-09T01:41:50;1007.91;;;18.49;52.75
48810;BME280;40070;47.322;18.784;2022-07-09T01:43:51;1007.81;;;18.46;52.94
48810;BME280;40070;47.322;18.784;2022-07-09T01:45:52;1007.84;;;18.58;52.52
48810;BME280;40070;47.322;18.784;2022-07-09T01:47:53;1007.80;;;18.59;52.52
48810;BME280;40070;47.322;18.784;2022-07-09T01:49:54;1007.81;;;18.57;52.53
48810;BME280;40070;47.322;18.784;2022-07-09T01:51:55;1007.82;;;18.51;52.69
48810;BME280;40070;47.322;18.784;2022-07-09T01:53:56;1007.80;;;18.34;53.11
48810;BME280;40070;47.322;18.784;2022-07-09T01:55:57;1007.77;;;18.37;53.15
48810;BME280;40070;47.322;18.784;2022-07-09T01:57:57;1007.74;;;18.30;53.37
48810;BME280;40070;47.322;18.784;2022-07-09T01:59:58;1007.70;;;18.29;53.48
48810;BME280;40070;47.322;18.784;2022-07-09T02:01:59;1007.66;;;18.23;53.58
48810;BME280;40070;47.322;18.784;2022-07-09T02:04:00;1007.63;;;18.27;53.50
48810;BME280;40070;47.322;18.784;2022-07-09T02:06:01;1007.61;;;18.32;53.29
48810;BME280;40070;47.322;18.784;2022-07-09T02:08:02;1007.63;;;18.35;53.28
48810;BME280;40070;47.322;18.784;2022-07-09T02:10:03;1007.62;;;18.09;54.02
48810;BME280;40070;47.322;18.784;2022-07-09T02:12:05;1007.61;;;18.13;53.86
48810;BME280;40070;47.322;18.784;2022-07-09T02:14:05;1007.62;;;18.36;53.27
48810;BME280;40070;47.322;18.784;2022-07-09T02:16:06;1007.63;;;18.50;52.90
48810;BME280;40070;47.322;18.784;2022-07-09T02:18:07;1007.67;;;18.54;52.67
48810;BME280;40070;47.322;18.784;2022-07-09T02:20:08;1007.66;;;18.49;52.79
48810;BME280;40070;47.322;18.784;2022-07-09T02:22:09;1007.71;;;18.41;52.99
48810;BME280;40070;47.322;18.784;2022-07-09T02:24:10;1007.70;;;18.53;52.71
48810;BME280;40070;47.322;18.784;2022-07-09T02:26:11;1007.71;;;18.42;52.97
48810;BME280;40070;47.322;18.784;2022-07-09T02:28:12;1007.77;;;18.68;52.36
48810;BME280;40070;47.322;18.784;2022-07-09T02:30:13;1007.78;;;18.69;52.18
48810;BME280;40070;47.322;18.784;2022-07-09T02:32:14;1007.82;;;18.61;52.40
48810;BME280;40070;47.322;18.784;2022-07-09T02:34:15;1007.88;;;18.71;52.16
48810;BME280;40070;47.322;18.784;2022-07-09T02:36:16;1007.87;;;18.68;52.42
48810;BME280;40070;47.322;18.784;2022-07-09T02:38:17;1007.82;;;18.79;52.16
48810;BME280;40070;47.322;18.784;2022-07-09T02:40:18;1007.86;;;18.88;51.85
48810;BME280;40070;47.322;18.784;2022-07-09T02:42:18;1007.85;;;18.68;52.29
48810;BME280;40070;47.322;18.784;2022-07-09T02:44:19;1007.82;;;18.77;51.97
48810;BME280;40070;47.322;18.784;2022-07-09T02:46:20;1007.82;;;18.83;51.87
48810;BME280;40070;47.322;18.784;2022-07-09T02:48:22;1007.83;;;18.53;52.59
48810;BME280;40070;47.322;18.784;2022-07-09T02:50:23;1007.83;;;18.33;53.16
48810;BME280;40070;47.322;18.784;2022-07-09T02:52:24;1007.83;;;18.23;53.54
48810;BME280;40070;47.322;18.784;2022-07-09T02:54:24;1007.84;;;18.18;53.71
48810;BME280;40070;47.322;18.784;2022-07-09T02:56:25;1007.87;;;18.31;53.46
48810;BME280;40070;47.322;18.784;2022-07-09T02:58:26;1007.88;;;18.34;53.31
48810;BME280;40070;47.322;18.784;2022-07-09T03:00:27;1007.91;;;18.38;53.39
48810;BME280;40070;47.322;18.784;2022-07-09T03:02:28;1007.84;;;18.22;53.75
48810;BME280;40070;47.322;18.784;2022-07-09T03:04:29;1007.82;;;18.11;54.19
48810;BME280;40070;47.322;18.784;2022-07-09T03:06:30;1007.81;;;18.21;53.83
48810;BME280;40070;47.322;18.784;2022-07-09T03:08:31;1007.83;;;18.31;53.60
48810;BME280;40070;47.322;18.784;2022-07-09T03:10:32;1007.83;;;18.10;54.12
48810;BME280;40070;47.322;18.784;2022-07-09T03:12:33;1007.87;;;18.01;54.39
48810;BME280;40070;47.322;18.784;2022-07-09T03:14:33;1007.85;;;17.90;54.76
48810;BME280;40070;47.322;18.784;2022-07-09T03:16:34;1007.80;;;18.00;54.50
48810;BME280;40070;47.322;18.784;2022-07-09T03:18:35;1007.82;;;17.97;54.61
48810;BME280;40070;47.322;18.784;2022-07-09T03:20:36;1007.79;;;18.18;54.03
48810;BME280;40070;47.322;18.784;2022-07-09T03:22:37;1007.85;;;18.16;54.08
48810;BME280;40070;47.322;18.784;2022-07-09T03:24:38;1007.87;;;18.20;54.08
48810;BME280;40070;47.322;18.784;2022-07-09T03:26:39;1007.86;;;18.24;54.03
48810;BME280;40070;47.322;18.784;2022-07-09T03:28:40;1007.86;;;18.34;53.70
48810;BME280;40070;47.322;18.784;2022-07-09T03:30:41;1007.93;;;18.10;54.25
48810;BME280;40070;47.322;18.784;2022-07-09T03:32:42;1007.92;;;18.23;54.03
48810;BME280;40070;47.322;18.784;2022-07-09T03:34:43;1007.88;;;18.02;54.64
48810;BME280;40070;47.322;18.784;2022-07-09T03:36:44;1007.90;;;18.16;54.45
48810;BME280;40070;47.322;18.784;2022-07-09T03:38:45;1007.89;;;18.18;54.35
48810;BME280;40070;47.322;18.784;2022-07-09T03:40:46;1007.91;;;18.18;54.31
48810;BME280;40070;47.322;18.784;2022-07-09T03:42:47;1007.93;;;18.15;54.53
48810;BME280;40070;47.322;18.784;2022-07-09T03:44:47;1007.93;;;18.27;54.26
48810;BME280;40070;47.322;18.784;2022-07-09T03:46:48;1007.92;;;18.06;54.67
48810;BME280;40070;47.322;18.784;2022-07-09T03:48:49;1007.95;;;18.05;54.85
48810;BME280;40070;47.322;18.784;2022-07-09T03:50:50;1007.96;;;18.18;54.57
48810;BME280;40070;47.322;18.784;2022-07-09T03:52:51;1007.92;;;18.30;54.21
48810;BME280;40070;47.322;18.784;2022-07-09T03:54:52;1007.95;;;18.18;54.66
48810;BME280;40070;47.322;18.784;2022-07-09T03:56:53;1007.98;;;18.36;54.12
48810;BME280;40070;47.322;18.784;2022-07-09T03:58:54;1008.01;;;18.43;53.89
48810;BME280;40070;47.322;18.784;2022-07-09T04:00:55;1007.96;;;18.32;54.09
48810;BME280;40070;47.322;18.784;2022-07-09T04:02:55;1007.96;;;18.56;53.47
48810;BME280;40070;47.322;18.784;2022-07-09T04:04:56;1007.96;;;18.62;53.20
48810;BME280;40070;47.322;18.784;2022-07-09T04:06:57;1008.02;;;18.52;53.46
48810;BME280;40070;47.322;18.784;2022-07-09T04:08:58;1008.04;;;18.40;53.83
48810;BME280;40070;47.322;18.784;2022-07-09T04:10:59;1007.94;;;18.61;53.42
48810;BME280;40070;47.322;18.784;2022-07-09T04:13:00;1008.03;;;18.33;53.92
48810;BME280;40070;47.322;18.784;2022-07-09T04:15:01;1007.97;;;18.25;54.33
48810;BME280;40070;47.322;18.784;2022-07-09T04:17:02;1007.99;;;18.61;53.55
48810;BME280;40070;47.322;18.784;2022-07-09T04:19:03;1007.98;;;18.66;53.38
48810;BME280;40070;47.322;18.784;2022-07-09T04:21:04;1007.98;;;18.65;53.20
48810;BME280;40070;47.322;18.784;2022-07-09T04:23:05;1007.99;;;18.78;52.85
48810;BME280;40070;47.322;18.784;2022-07-09T04:25:06;1008.07;;;19.01;52.46
48810;BME280;40070;47.322;18.784;2022-07-09T04:27:07;1008.08;;;18.75;52.88
48810;BME280;40070;47.322;18.784;2022-07-09T04:29:08;1008.07;;;18.84;52.73
48810;BME280;40070;47.322;18.784;2022-07-09T04:31:09;1008.10;;;19.03;52.24
48810;BME280;40070;47.322;18.784;2022-07-09T04:33:09;1008.06;;;18.89;52.55
48810;BME280;40070;47.322;18.784;2022-07-09T04:35:10;1008.04;;;18.81;52.89
48810;BME280;40070;47.322;18.784;2022-07-09T04:37:11;1008.06;;;18.29;54.22
48810;BME280;40070;47.322;18.784;2022-07-09T04:39:12;1008.06;;;18.54;53.69
48810;BME280;40070;47.322;18.784;2022-07-09T04:41:13;1008.09;;;18.77;53.31
48810;BME280;40070;47.322;18.784;2022-07-09T04:43:14;1008.10;;;18.82;52.99
48810;BME280;40070;47.322;18.784;2022-07-09T04:45:15;1008.06;;;18.66;53.51
48810;BME280;40070;47.322;18.784;2022-07-09T04:47:16;1008.13;;;18.63;53.61
48810;BME280;40070;47.322;18.784;2022-07-09T04:49:17;1008.13;;;18.79;53.29
48810;BME280;40070;47.322;18.784;2022-07-09T04:51:18;1008.12;;;18.72;53.36
48810;BME280;40070;47.322;18.784;2022-07-09T04:53:19;1008.10;;;18.80;53.14
48810;BME280;40070;47.322;18.784;2022-07-09T04:55:20;1008.07;;;18.64;53.39
48810;BME280;40070;47.322;18.784;2022-07-09T04:57:20;1008.08;;;18.63;53.54
48810;BME280;40070;47.322;18.784;2022-07-09T04:59:21;1008.08;;;18.47;54.09
48810;BME280;40070;47.322;18.784;2022-07-09T05:01:22;1008.07;;;18.75;53.66
48810;BME280;40070;47.322;18.784;2022-07-09T05:03:24;1008.10;;;18.89;53.20
48810;BME280;40070;47.322;18.784;2022-07-09T05:05:25;1008.08;;;19.04;52.83
48810;BME280;40070;47.322;18.784;2022-07-09T05:07:25;1008.11;;;18.85;52.87
48810;BME280;40070;47.322;18.784;2022-07-09T05:09:26;1008.10;;;19.11;52.52
48810;BME280;40070;47.322;18.784;2022-07-09T05:11:27;1008.10;;;19.13;52.45
48810;BME280;40070;47.322;18.784;2022-07-09T05:13:28;1008.14;;;19.07;52.40
48810;BME280;40070;47.322;18.784;2022-07-09T05:15:29;1008.15;;;19.00;52.75
48810;BME280;40070;47.322;18.784;2022-07-09T05:17:33;1008.13;;;18.78;53.37
48810;BME280;40070;47.322;18.784;2022-07-09T05:19:33;1008.15;;;18.51;54.11
48810;BME280;40070;47.322;18.784;2022-07-09T05:21:34;1008.09;;;18.65;53.90
48810;BME280;40070;47.322;18.784;2022-07-09T05:23:35;1008.11;;;18.65;54.04
48810;BME280;40070;47.322;18.784;2022-07-09T05:25:36;1008.14;;;18.53;53.81
48810;BME280;40070;47.322;18.784;2022-07-09T05:27:43;1008.09;;;18.88;53.26
48810;BME280;40070;47.322;18.784;2022-07-09T05:29:44;1008.10;;;19.00;52.80
48810;BME280;40070;47.322;18.784;2022-07-09T05:31:45;1008.03;;;19.41;51.61
48810;BME280;40070;47.322;18.784;2022-07-09T05:33:46;1008.08;;;19.56;51.39
48810;BME280;40070;47.322;18.784;2022-07-09T05:35:47;1008.07;;;19.52;51.44
48810;BME280;40070;47.322;18.784;2022-07-09T05:37:48;1008.08;;;19.57;51.25
48810;BME280;40070;47.322;18.784;2022-07-09T05:39:49;1008.04;;;19.79;50.83
48810;BME280;40070;47.322;18.784;2022-07-09T05:41:50;1008.06;;;19.97;50.46
48810;BME280;40070;47.322;18.784;2022-07-09T05:43:51;1008.07;;;20.08;50.08
48810;BME280;40070;47.322;18.784;2022-07-09T05:45:52;1007.99;;;20.03;50.37
48810;BME280;40070;47.322;18.784;2022-07-09T05:47:53;1007.98;;;19.96;50.44
48810;BME280;40070;47.322;18.784;2022-07-09T05:49:54;1007.94;;;20.33;49.86
48810;BME280;40070;47.322;18.784;2022-07-09T05:51:55;1007.93;;;20.19;49.65
48810;BME280;40070;47.322;18.784;2022-07-09T05:53:56;1007.98;;;20.32;49.76
48810;BME280;40070;47.322;18.784;2022-07-09T05:55:57;1008.00;;;19.98;50.11
48810;BME280;40070;47.322;18.784;2022-07-09T05:57:58;1007.98;;;20.00;50.36
48810;BME280;40070;47.322;18.784;2022-07-09T05:59:58;1008.00;;;19.91;50.35
48810;BME280;40070;47.322;18.784;2022-07-09T06:01:59;1008.01;;;19.99;50.24
48810;BME280;40070;47.322;18.784;2022-07-09T06:04:00;1007.97;;;19.98;50.32
48810;BME280;40070;47.322;18.784;2022-07-09T06:06:01;1008.02;;;19.92;50.31
48810;BME280;40070;47.322;18.784;2022-07-09T06:08:02;1008.00;;;19.81;50.87
48810;BME280;40070;47.322;18.784;2022-07-09T06:10:03;1008.02;;;19.88;50.75
48810;BME280;40070;47.322;18.784;2022-07-09T06:12:04;1008.03;;;20.08;50.35
48810;BME280;40070;47.322;18.784;2022-07-09T06:14:05;1007.98;;;20.27;50.26
48810;BME280;40070;47.322;18.784;2022-07-09T06:16:06;1007.96;;;20.34;49.47
48810;BME280;40070;47.322;18.784;2022-07-09T06:18:07;1008.02;;;20.43;49.39
48810;BME280;40070;47.322;18.784;2022-07-09T06:20:08;1008.02;;;20.77;48.64
48810;BME280;40070;47.322;18.784;2022-07-09T06:22:09;1008.08;;;20.41;48.97
48810;BME280;40070;47.322;18.784;2022-07-09T06:24:10;1008.04;;;20.71;48.88
48810;BME280;40070;47.322;18.784;2022-07-09T06:26:11;1008.00;;;20.78;48.30
48810;BME280;40070;47.322;18.784;2022-07-09T06:28:12;1007.96;;;20.96;47.98
48810;BME280;40070;47.322;18.784;2022-07-09T06:30:13;1007.92;;;21.09;47.43
48810;BME280;40070;47.322;18.784;2022-07-09T06:32:14;1007.95;;;21.39;46.97
48810;BME280;40070;47.322;18.784;2022-07-09T06:34:15;1007.93;;;21.31;47.13
48810;BME280;40070;47.322;18.784;2022-07-09T06:36:16;1007.99;;;21.47;47.00
48810;BME280;40070;47.322;18.784;2022-07-09T06:38:17;1007.90;;;21.63;46.34
48810;BME280;40070;47.322;18.784;2022-07-09T06:40:18;1007.96;;;21.81;46.15
48810;BME280;40070;47.322;18.784;2022-07-09T06:42:18;1007.99;;;22.00;45.42
48810;BME280;40070;47.322;18.784;2022-07-09T06:44:19;1007.96;;;22.27;45.24
48810;BME280;40070;47.322;18.784;2022-07-09T06:46:20;1007.97;;;22.08;45.50
48810;BME280;40070;47.322;18.784;2022-07-09T06:48:21;1007.97;;;22.52;44.28
48810;BME280;40070;47.322;18.784;2022-07-09T06:50:22;1008.01;;;22.58;44.17
48810;BME280;40070;47.322;18.784;2022-07-09T06:52:23;1007.92;;;22.70;43.75
48810;BME280;40070;47.322;18.784;2022-07-09T06:54:24;1007.95;;;22.89;43.41
48810;BME280;40070;47.322;18.784;2022-07-09T06:56:25;1007.95;;;22.85;43.67
48810;BME280;40070;47.322;18.784;2022-07-09T06:58:25;1008.00;;;23.03;42.97
48810;BME280;40070;47.322;18.784;2022-07-09T07:00:26;1008.00;;;23.00;42.79
48810;BME280;40070;47.322;18.784;2022-07-09T07:02:27;1008.01;;;23.06;42.65
48810;BME280;40070;47.322;18.784;2022-07-09T07:04:28;1007.97;;;23.02;42.82
48810;BME280;40070;47.322;18.784;2022-07-09T07:06:29;1007.95;;;23.26;42.13
48810;BME280;40070;47.322;18.784;2022-07-09T07:08:30;1007.93;;;23.06;42.96
48810;BME280;40070;47.322;18.784;2022-07-09T07:10:31;1007.95;;;23.11;42.57
48810;BME280;40070;47.322;18.784;2022-07-09T07:12:32;1007.91;;;23.30;42.50
48810;BME280;40070;47.322;18.784;2022-07-09T07:14:33;1007.92;;;23.64;42.13
48810;BME280;40070;47.322;18.784;2022-07-09T07:16:34;1007.90;;;23.39;41.96
48810;BME280;40070;47.322;18.784;2022-07-09T07:18:34;1007.92;;;23.29;41.81
48810;BME280;40070;47.322;18.784;2022-07-09T07:20:35;1007.93;;;23.61;41.07
48810;BME280;40070;47.322;18.784;2022-07-09T07:22:36;1007.89;;;23.72;40.65
48810;BME280;40070;47.322;18.784;2022-07-09T07:24:37;1007.84;;;23.65;40.91
48810;BME280;40070;47.322;18.784;2022-07-09T07:26:38;1007.89;;;23.54;41.49
48810;BME280;40070;47.322;18.784;2022-07-09T07:28:39;1007.88;;;23.70;41.11
48810;BME280;40070;47.322;18.784;2022-07-09T07:30:40;1007.87;;;23.71;40.69
48810;BME280;40070;47.322;18.784;2022-07-09T07:32:41;1007.79;;;23.85;40.43
48810;BME280;40070;47.322;18.784;2022-07-09T07:34:42;1007.83;;;23.91;40.54
48810;BME280;40070;47.322;18.784;2022-07-09T07:36:43;1007.75;;;24.21;40.37
48810;BME280;40070;47.322;18.784;2022-07-09T07:38:44;1007.68;;;24.60;39.22
48810;BME280;40070;47.322;18.784;2022-07-09T07:40:45;1007.65;;;24.90;38.59
48810;BME280;40070;47.322;18.784;2022-07-09T07:42:46;1007.73;;;24.45;38.69
48810;BME280;40070;47.322;18.784;2022-07-09T07:44:47;1007.71;;;24.48;38.45
48810;BME280;40070;47.322;18.784;2022-07-09T07:46:47;1007.70;;;24.74;38.20
48810;BME280;40070;47.322;18.784;2022-07-09T07:48:48;1007.69;;;24.82;37.61
48810;BME280;40070;47.322;18.784;2022-07-09T07:50:49;1007.63;;;24.82;37.67
48810;BME280;40070;47.322;18.784;2022-07-09T07:52:50;1007.64;;;24.83;38.42
48810;BME280;40070;47.322;18.784;2022-07-09T07:54:51;1007.65;;;25.02;38.26
48810;BME280;40070;47.322;18.784;2022-07-09T07:56:52;1007.60;;;25.07;38.04
48810;BME280;40070;47.322;18.784;2022-07-09T07:58:53;1007.60;;;25.42;37.56
48810;BME280;40070;47.322;18.784;2022-07-09T08:00:54;1007.57;;;24.98;38.20
48810;BME280;40070;47.322;18.784;2022-07-09T08:02:55;1007.50;;;25.22;37.57
48810;BME280;40070;47.322;18.784;2022-07-09T08:04:56;1007.51;;;25.40;37.37
48810;BME280;40070;47.322;18.784;2022-07-09T08:06:57;1007.50;;;25.33;37.51
48810;BME280;40070;47.322;18.784;2022-07-09T08:08:58;1007.52;;;25.38;37.57
48810;BME280;40070;47.322;18.784;2022-07-09T08:10:58;1007.53;;;25.74;36.24
48810;BME280;40070;47.322;18.784;2022-07-09T08:12:59;1007.51;;;25.12;36.94
48810;BME280;40070;47.322;18.784;2022-07-09T08:15:00;1007.47;;;25.24;36.87
48810;BME280;40070;47.322;18.784;2022-07-09T08:17:01;1007.41;;;25.73;36.38
48810;BME280;40070;47.322;18.784;2022-07-09T08:19:02;1007.40;;;25.73;36.10
48810;BME280;40070;47.322;18.784;2022-07-09T08:21:03;1007.39;;;25.63;36.10
48810;BME280;40070;47.322;18.784;2022-07-09T08:23:04;1007.33;;;25.30;36.47
48810;BME280;40070;47.322;18.784;2022-07-09T08:25:05;1007.38;;;25.38;36.26
48810;BME280;40070;47.322;18.784;2022-07-09T08:27:06;1007.31;;;25.58;36.15
48810;BME280;40070;47.322;18.784;2022-07-09T08:29:07;1007.35;;;25.64;35.84
48810;BME280;40070;47.322;18.784;2022-07-09T08:31:08;1007.36;;;25.53;35.27
48810;BME280;40070;47.322;18.784;2022-07-09T08:33:09;1007.38;;;25.83;34.92
48810;BME280;40070;47.322;18.784;2022-07-09T08:35:09;1007.29;;;25.72;34.96
48810;BME280;40070;47.322;18.784;2022-07-09T08:37:10;1007.34;;;25.88;34.52
48810;BME280;40070;47.322;18.784;2022-07-09T08:39:11;1007.32;;;25.94;34.13
48810;BME280;40070;47.322;18.784;2022-07-09T08:41:12;1007.33;;;25.96;33.97
48810;BME280;40070;47.322;18.784;2022-07-09T08:43:13;1007.33;;;25.68;34.09
48810;BME280;40070;47.322;18.784;2022-07-09T08:45:14;1007.29;;;25.85;34.31
48810;BME280;40070;47.322;18.784;2022-07-09T08:47:17;1007.25;;;25.95;33.44
48810;BME280;40070;47.322;18.784;2022-07-09T08:49:18;1007.24;;;26.14;32.79
48810;BME280;40070;47.322;18.784;2022-07-09T08:51:19;1007.25;;;26.11;31.86
48810;BME280;40070;47.322;18.784;2022-07-09T08:53:20;1007.27;;;25.98;32.22
48810;BME280;40070;47.322;18.784;2022-07-09T08:55:21;1007.25;;;26.12;32.15
48810;BME280;40070;47.322;18.784;2022-07-09T08:57:22;1007.26;;;26.19;31.72
48810;BME280;40070;47.322;18.784;2022-07-09T08:59:23;1007.24;;;26.51;31.34
48810;BME280;40070;47.322;18.784;2022-07-09T09:01:24;1007.21;;;26.34;30.07
48810;BME280;40070;47.322;18.784;2022-07-09T09:03:26;1007.21;;;26.40;30.71
48810;BME280;40070;47.322;18.784;2022-07-09T09:05:27;1007.19;;;26.52;30.88
48810;BME280;40070;47.322;18.784;2022-07-09T09:07:28;1007.23;;;26.84;30.87
48810;BME280;40070;47.322;18.784;2022-07-09T09:09:29;1007.24;;;26.88;30.65
48810;BME280;40070;47.322;18.784;2022-07-09T09:11:35;1007.20;;;26.75;30.64
48810;BME280;40070;47.322;18.784;2022-07-09T09:13:36;1007.20;;;26.88;30.65
48810;BME280;40070;47.322;18.784;2022-07-09T09:15:37;1007.15;;;26.68;30.94
48810;BME280;40070;47.322;18.784;2022-07-09T09:17:44;1007.13;;;26.89;30.66
48810;BME280;40070;47.322;18.784;2022-07-09T09:19:45;1007.08;;;26.68;30.17
48810;BME280;40070;47.322;18.784;2022-07-09T09:21:49;1007.10;;;26.91;30.44
48810;BME280;40070;47.322;18.784;2022-07-09T09:23:52;1007.09;;;27.08;30.24
48810;BME280;40070;47.322;18.784;2022-07-09T09:25:54;1007.05;;;27.02;30.16
48810;BME280;40070;47.322;18.784;2022-07-09T09:27:58;1007.06;;;26.98;30.36
48810;BME280;40070;47.322;18.784;2022-07-09T09:29:59;1007.01;;;27.20;30.18
48810;BME280;40070;47.322;18.784;2022-07-09T09:32:08;1006.97;;;27.06;30.08
48810;BME280;40070;47.322;18.784;2022-07-09T09:34:13;1006.98;;;27.24;30.09
48810;BME280;40070;47.322;18.784;2022-07-09T09:36:30;1006.96;;;27.41;29.63
48810;BME280;40070;47.322;18.784;2022-07-09T09:38:31;1006.92;;;27.54;29.39
48810;BME280;40070;47.322;18.784;2022-07-09T09:40:32;1006.83;;;28.03;28.66
48810;BME280;40070;47.322;18.784;2022-07-09T09:42:33;1006.77;;;28.13;28.45
48810;BME280;40070;47.322;18.784;2022-07-09T09:44:38;1006.82;;;27.97;28.26
48810;BME280;40070;47.322;18.784;2022-07-09T09:46:40;1006.81;;;28.36;28.35
48810;BME280;40070;47.322;18.784;2022-07-09T09:48:41;1006.73;;;28.63;27.38
48810;BME280;40070;47.322;18.784;2022-07-09T09:50:43;1006.78;;;28.27;27.73
48810;BME280;40070;47.322;18.784;2022-07-09T09:52:47;1006.89;;;27.72;28.13
48810;BME280;40070;47.322;18.784;2022-07-09T09:54:48;1006.86;;;27.66;27.99
48810;BME280;40070;47.322;18.784;2022-07-09T09:56:51;1006.75;;;27.88;28.12
48810;BME280;40070;47.322;18.784;2022-07-09T09:58:52;1006.79;;;28.16;27.19
48810;BME280;40070;47.322;18.784;2022-07-09T10:00:53;1006.73;;;28.32;27.33
48810;BME280;40070;47.322;18.784;2022-07-09T10:02:54;1006.77;;;28.56;26.96
48810;BME280;40070;47.322;18.784;2022-07-09T10:04:55;1006.74;;;29.04;26.85
48810;BME280;40070;47.322;18.784;2022-07-09T10:06:58;1006.73;;;29.19;26.53
48810;BME280;40070;47.322;18.784;2022-07-09T10:09:00;1006.71;;;29.37;25.68
48810;BME280;40070;47.322;18.784;2022-07-09T10:11:01;1006.67;;;29.45;25.31
48810;BME280;40070;47.322;18.784;2022-07-09T10:13:02;1006.76;;;28.83;25.69
48810;BME280;40070;47.322;18.784;2022-07-09T10:15:07;1006.77;;;28.15;26.64
48810;BME280;40070;47.322;18.784;2022-07-09T10:17:12;1006.69;;;28.99;26.23
48810;BME280;40070;47.322;18.784;2022-07-09T10:19:30;1006.73;;;28.86;26.18
48810;BME280;40070;47.322;18.784;2022-07-09T10:21:35;1006.73;;;28.81;26.35
48810;BME280;40070;47.322;18.784;2022-07-09T10:23:36;1006.67;;;28.96;26.40
48810;BME280;40070;47.322;18.784;2022-07-09T10:25:49;1006.70;;;28.40;26.79
48810;BME280;40070;47.322;18.784;2022-07-09T10:27:50;1006.68;;;28.44;26.56
48810;BME280;40070;47.322;18.784;2022-07-09T10:29:55;1006.58;;;28.42;26.46
48810;BME280;40070;47.322;18.784;2022-07-09T10:31:56;1006.61;;;28.97;26.37
48810;BME280;40070;47.322;18.784;2022-07-09T10:34:00;1006.54;;;29.20;25.70
48810;BME280;40070;47.322;18.784;2022-07-09T10:36:10;1006.56;;;28.93;25.92
48810;BME280;40070;47.322;18.784;2022-07-09T10:38:14;1006.50;;;28.58;26.65
48810;BME280;40070;47.322;18.784;2022-07-09T10:40:18;1006.52;;;28.08;27.40
48810;BME280;40070;47.322;18.784;2022-07-09T10:42:21;1006.50;;;28.16;27.57